createdAt,value
2019-04-30T00:01:48.527Z,83.27
2019-04-30T00:04:40.417Z,83.02
2019-04-30T00:07:10.149Z,82.39
2019-04-30T00:09:40.642Z,82.70
2019-04-30T00:12:10.203Z,82.24
2019-04-30T00:14:41.362Z,82.17
2019-04-30T00:17:10.738Z,82.14
2019-04-30T00:19:41.448Z,82.07
2019-04-30T00:22:10.772Z,82.33
2019-04-30T00:24:44.268Z,82.65
2019-04-30T00:27:10.929Z,82.70
2019-04-30T00:29:40.190Z,82.58
2019-04-30T00:32:09.391Z,82.40
2019-04-30T00:34:39.480Z,82.51
2019-04-30T00:37:13.965Z,82.44
2019-04-30T00:39:39.687Z,81.90
2019-04-30T00:42:09.110Z,81.61
2019-04-30T00:44:38.315Z,81.68
2019-04-30T00:47:08.456Z,81.54
2019-04-30T00:49:37.653Z,82.21
2019-04-30T00:52:06.835Z,82.09
2019-04-30T00:54:36.016Z,82.16
2019-04-30T00:57:07.653Z,82.38
2019-04-30T00:59:39.865Z,82.42
2019-04-30T01:02:30.800Z,82.51
2019-04-30T01:04:58.334Z,82.19
2019-04-30T01:07:28.193Z,81.71
2019-04-30T01:09:57.374Z,81.17
2019-04-30T01:12:29.649Z,80.88
2019-04-30T01:14:59.038Z,81.05
2019-04-30T01:17:29.952Z,81.31
2019-04-30T01:19:59.287Z,81.36
2019-04-30T01:22:32.783Z,81.24
2019-04-30T01:25:01.351Z,81.28
2019-04-30T01:27:30.723Z,81.19
2019-04-30T01:30:00.096Z,81.32
2019-04-30T01:32:29.400Z,81.23
2019-04-30T01:34:58.959Z,81.32
2019-04-30T01:37:29.624Z,80.95
2019-04-30T01:40:03.083Z,80.90
2019-04-30T01:42:30.204Z,80.64
2019-04-30T01:44:59.382Z,80.48
2019-04-30T01:47:30.798Z,80.23
2019-04-30T01:50:04.895Z,80.18
2019-04-30T01:52:51.058Z,79.95
2019-04-30T01:55:23.404Z,80.40
2019-04-30T01:58:05.918Z,80.30
2019-04-30T02:00:49.320Z,80.01
2019-04-30T02:03:19.354Z,80.14
2019-04-30T02:05:49.844Z,80.43
2019-04-30T02:08:19.589Z,80.37
2019-04-30T02:10:51.216Z,80.40
2019-04-30T02:13:19.734Z,81.01
2019-04-30T02:15:49.309Z,81.29
2019-04-30T02:18:19.693Z,81.12
2019-04-30T02:20:49.733Z,80.66
2019-04-30T02:23:19.722Z,80.91
2019-04-30T02:25:49.118Z,81.28
2019-04-30T02:28:19.075Z,81.22
2019-04-30T02:30:50.381Z,81.18
2019-04-30T02:33:21.021Z,80.70
2019-04-30T02:36:03.259Z,80.08
2019-04-30T02:38:33.711Z,80.33
2019-04-30T02:41:03.762Z,80.43
2019-04-30T02:43:33.870Z,80.15
2019-04-30T02:46:05.017Z,80.26
2019-04-30T02:48:36.339Z,80.43
2019-04-30T02:51:06.459Z,80.61
2019-04-30T02:54:09.911Z,80.06
2019-04-30T02:56:40.238Z,79.64
2019-04-30T02:59:11.284Z,79.90
2019-04-30T03:01:40.690Z,79.89
2019-04-30T03:04:10.245Z,80.04
2019-04-30T03:06:40.247Z,80.34
2019-04-30T03:09:10.601Z,80.39
2019-04-30T03:11:41.039Z,79.81
2019-04-30T03:14:10.916Z,80.20
2019-04-30T03:16:52.530Z,79.52
2019-04-30T03:19:42.604Z,79.40
2019-04-30T03:22:15.499Z,78.87
2019-04-30T03:24:44.787Z,79.19
2019-04-30T03:27:13.968Z,79.37
2019-04-30T03:29:43.134Z,79.49
2019-04-30T03:32:13.765Z,79.51
2019-04-30T03:34:43.245Z,79.29
2019-04-30T03:37:12.406Z,79.59
2019-04-30T03:39:41.556Z,79.46
2019-04-30T03:42:12.323Z,79.81
2019-04-30T03:44:41.535Z,79.76
2019-04-30T03:47:11.186Z,79.90
2019-04-30T03:49:40.547Z,79.92
2019-04-30T03:52:13.106Z,79.56
2019-04-30T03:54:41.080Z,79.75
2019-04-30T03:57:11.374Z,80.03
2019-04-30T03:59:40.675Z,79.90
2019-04-30T04:02:20.836Z,79.80
2019-04-30T04:04:54.298Z,79.82
2019-04-30T04:07:52.929Z,79.62
2019-04-30T04:10:33.279Z,79.59
2019-04-30T04:13:02.429Z,78.89
2019-04-30T04:15:33.077Z,79.09
2019-04-30T04:18:02.312Z,79.52
2019-04-30T04:20:34.164Z,79.05
2019-04-30T04:23:05.186Z,78.91
2019-04-30T04:25:34.481Z,78.59
2019-04-30T04:28:03.777Z,78.57
2019-04-30T04:30:32.935Z,78.55
2019-04-30T04:33:02.549Z,78.16
2019-04-30T04:35:31.703Z,77.56
2019-04-30T04:38:00.968Z,77.70
2019-04-30T04:40:30.462Z,77.36
2019-04-30T04:43:00.245Z,77.91
2019-04-30T04:45:30.610Z,77.99
2019-04-30T04:48:00.352Z,78.26
2019-04-30T04:50:30.189Z,78.05
2019-04-30T04:52:59.815Z,78.53
2019-04-30T04:55:30.174Z,78.39
2019-04-30T04:57:59.914Z,78.41
2019-04-30T05:00:29.539Z,78.51
2019-04-30T05:03:04.426Z,78.32
2019-04-30T05:05:33.665Z,77.66
2019-04-30T05:08:02.831Z,77.58
2019-04-30T05:10:32.013Z,77.79
2019-04-30T05:13:01.757Z,78.25
2019-04-30T05:15:31.013Z,78.32
2019-04-30T05:18:00.172Z,78.43
2019-04-30T05:20:29.382Z,78.00
2019-04-30T05:22:58.643Z,77.48
2019-04-30T05:25:29.394Z,77.51
2019-04-30T05:28:00.148Z,77.62
2019-04-30T05:30:29.647Z,77.23
2019-04-30T05:32:58.954Z,76.94
2019-04-30T05:35:28.422Z,76.58
2019-04-30T05:37:59.330Z,77.19
2019-04-30T05:40:28.796Z,76.67
2019-04-30T05:42:58.125Z,76.65
2019-04-30T05:45:28.947Z,74.49
2019-04-30T05:47:58.751Z,74.30
2019-04-30T05:50:29.747Z,74.45
2019-04-30T05:52:59.234Z,74.60
2019-04-30T05:55:29.434Z,74.51
2019-04-30T05:58:01.397Z,74.75
2019-04-30T06:00:30.641Z,74.57
2019-04-30T06:02:59.930Z,74.35
2019-04-30T06:05:30.462Z,73.77
2019-04-30T06:07:59.715Z,72.11
2019-04-30T06:10:43.284Z,72.70
2019-04-30T06:13:25.488Z,72.76
2019-04-30T06:16:00.700Z,72.65
2019-04-30T06:18:29.884Z,71.99
2019-04-30T06:20:59.543Z,70.72
2019-04-30T06:23:29.419Z,71.05
2019-04-30T06:26:06.899Z,70.79
2019-04-30T06:28:29.884Z,70.64
2019-04-30T06:30:59.188Z,71.20
2019-04-30T06:33:29.108Z,70.82
2019-04-30T06:35:59.041Z,71.67
2019-04-30T06:38:29.196Z,71.18
2019-04-30T06:41:00.681Z,73.03
2019-04-30T06:43:30.117Z,73.87
2019-04-30T06:45:59.290Z,73.12
2019-04-30T06:48:30.136Z,72.26
2019-04-30T06:50:59.682Z,73.21
2019-04-30T06:53:29.336Z,71.68
2019-04-30T06:55:58.996Z,72.06
2019-04-30T06:58:29.178Z,70.93
2019-04-30T07:00:59.589Z,70.04
2019-04-30T07:03:29.154Z,69.03
2019-04-30T07:05:58.687Z,68.23
2019-04-30T07:08:59.694Z,69.46
2019-04-30T07:11:32.875Z,68.19
2019-04-30T07:14:02.065Z,68.38
2019-04-30T07:16:33.369Z,68.37
2019-04-30T07:19:02.818Z,69.69
2019-04-30T07:21:36.436Z,69.95
2019-04-30T07:24:02.954Z,68.34
2019-04-30T07:26:33.359Z,68.21
2019-04-30T07:29:03.714Z,68.86
2019-04-30T07:31:32.870Z,68.08
2019-04-30T07:34:02.288Z,69.12
2019-04-30T07:36:45.942Z,69.28
2019-04-30T07:39:02.398Z,68.46
2019-04-30T07:41:31.617Z,69.35
2019-04-30T07:44:01.073Z,67.06
2019-04-30T07:46:35.197Z,65.98
2019-04-30T07:49:02.001Z,65.81
2019-04-30T07:51:37.127Z,66.38
2019-04-30T07:54:02.150Z,69.66
2019-04-30T07:56:37.269Z,66.32
2019-04-30T07:59:02.845Z,66.31
2019-04-30T08:01:32.249Z,68.31
2019-04-30T08:04:20.411Z,66.27
2019-04-30T08:06:49.997Z,64.65
2019-04-30T08:09:22.095Z,62.83
2019-04-30T08:11:50.171Z,63.40
2019-04-30T08:14:21.108Z,62.59
2019-04-30T08:16:51.095Z,64.48
2019-04-30T08:19:20.408Z,64.62
2019-04-30T08:21:49.554Z,62.61
2019-04-30T08:24:19.350Z,62.13
2019-04-30T08:26:49.378Z,63.45
2019-04-30T08:29:19.496Z,62.88
2019-04-30T08:31:49.038Z,62.55
2019-04-30T08:34:20.123Z,64.00
2019-04-30T08:36:49.330Z,63.59
2019-04-30T08:39:19.756Z,67.10
2019-04-30T08:41:49.360Z,67.12
2019-04-30T08:44:20.813Z,63.97
2019-04-30T08:46:49.534Z,63.81
2019-04-30T08:49:19.452Z,64.18
2019-04-30T08:51:50.786Z,64.01
2019-04-30T08:54:20.536Z,65.67
2019-04-30T08:56:50.357Z,65.62
2019-04-30T08:59:19.747Z,65.22
2019-04-30T09:01:48.908Z,65.99
2019-04-30T09:04:20.001Z,63.91
2019-04-30T09:06:49.608Z,63.63
2019-04-30T09:09:20.790Z,62.55
2019-04-30T09:11:55.414Z,64.06
2019-04-30T09:14:21.052Z,64.01
2019-04-30T09:16:51.316Z,65.36
2019-04-30T09:19:21.339Z,65.32
2019-04-30T09:21:50.915Z,64.94
2019-04-30T09:24:20.092Z,64.62
2019-04-30T09:26:49.430Z,64.75
2019-04-30T09:29:19.208Z,63.01
2019-04-30T09:31:49.348Z,64.64
2019-04-30T09:34:21.122Z,62.27
2019-04-30T09:36:49.776Z,62.11
2019-04-30T09:39:19.957Z,63.76
2019-04-30T09:41:49.882Z,63.23
2019-04-30T09:44:19.518Z,63.34
2019-04-30T09:46:48.987Z,63.41
2019-04-30T09:49:19.446Z,65.59
2019-04-30T09:51:49.828Z,64.09
2019-04-30T09:54:20.255Z,66.16
2019-04-30T09:56:52.617Z,67.19
2019-04-30T09:59:20.715Z,66.55
2019-04-30T10:01:51.706Z,67.91
2019-04-30T10:04:21.658Z,66.54
2019-04-30T10:06:51.408Z,64.37
2019-04-30T10:09:20.789Z,63.16
2019-04-30T10:12:21.143Z,65.60
2019-04-30T10:14:50.503Z,67.59
2019-04-30T10:17:54.069Z,62.75
2019-04-30T10:20:29.664Z,64.85
2019-04-30T10:22:59.639Z,65.20
2019-04-30T10:25:28.800Z,65.65
2019-04-30T10:27:59.789Z,66.12
2019-04-30T10:30:34.686Z,65.69
2019-04-30T10:33:03.936Z,65.37
2019-04-30T10:35:33.159Z,64.79
2019-04-30T10:38:02.574Z,65.61
2019-04-30T10:40:31.834Z,66.75
2019-04-30T10:43:00.995Z,66.09
2019-04-30T10:45:30.343Z,67.22
2019-04-30T10:47:59.626Z,65.68
2019-04-30T10:50:28.800Z,64.91
2019-04-30T10:52:59.116Z,63.25
2019-04-30T10:55:28.678Z,63.38
2019-04-30T10:57:59.444Z,64.45
2019-04-30T11:00:38.926Z,66.15
2019-04-30T11:03:19.260Z,65.12
2019-04-30T11:05:41.278Z,63.92
2019-04-30T11:08:10.607Z,66.60
2019-04-30T11:10:40.081Z,64.49
2019-04-30T11:13:09.284Z,64.47
2019-04-30T11:15:40.084Z,63.90
2019-04-30T11:18:09.587Z,63.54
2019-04-30T11:20:39.736Z,62.88
2019-04-30T11:23:14.495Z,62.41
2019-04-30T11:25:41.521Z,62.33
2019-04-30T11:28:11.785Z,61.33
2019-04-30T11:30:41.367Z,61.84
2019-04-30T11:33:11.259Z,61.55
2019-04-30T11:35:40.534Z,59.13
2019-04-30T11:38:09.722Z,61.50
2019-04-30T11:40:39.931Z,63.13
2019-04-30T11:43:09.648Z,62.74
2019-04-30T11:46:08.977Z,61.01
2019-04-30T11:48:38.746Z,62.02
2019-04-30T11:51:09.457Z,60.50
2019-04-30T11:53:39.070Z,59.31
2019-04-30T11:56:08.373Z,60.16
2019-04-30T11:58:38.884Z,58.80
2019-04-30T12:01:10.069Z,58.63
2019-04-30T12:03:39.449Z,57.72
2019-04-30T12:06:10.156Z,57.95
2019-04-30T12:08:56.262Z,58.85
2019-04-30T12:11:31.024Z,55.29
2019-04-30T12:14:00.231Z,57.25
2019-04-30T12:16:29.418Z,57.67
2019-04-30T12:19:00.654Z,54.56
2019-04-30T12:21:29.690Z,53.52
2019-04-30T12:23:58.915Z,54.05
2019-04-30T12:26:28.886Z,55.02
2019-04-30T12:28:58.178Z,52.88
2019-04-30T12:31:27.373Z,51.62
2019-04-30T12:33:56.542Z,53.85
2019-04-30T12:36:25.722Z,52.76
2019-04-30T12:38:54.912Z,53.85
2019-04-30T12:41:24.124Z,51.19
2019-04-30T12:43:53.599Z,51.66
2019-04-30T12:46:22.747Z,52.85
2019-04-30T12:48:57.140Z,52.54
2019-04-30T12:51:48.805Z,51.23
2019-04-30T12:54:33.448Z,49.33
2019-04-30T12:57:24.775Z,43.23
2019-04-30T12:59:53.938Z,46.41
2019-04-30T13:02:23.177Z,49.11
2019-04-30T13:04:52.379Z,50.19
2019-04-30T13:07:23.305Z,50.93
2019-04-30T13:09:53.448Z,49.89
2019-04-30T13:12:23.666Z,45.64
2019-04-30T13:14:54.820Z,42.94
2019-04-30T13:17:24.248Z,42.01
2019-04-30T13:19:53.439Z,44.83
2019-04-30T13:22:22.797Z,44.13
2019-04-30T13:24:52.460Z,44.81
2019-04-30T13:27:22.547Z,43.67
2019-04-30T13:30:02.498Z,47.87
2019-04-30T13:32:36.022Z,42.90
2019-04-30T13:35:05.710Z,44.26
2019-04-30T13:37:44.143Z,41.50
2019-04-30T13:40:32.020Z,39.23
2019-04-30T13:43:02.114Z,45.02
2019-04-30T13:45:31.330Z,44.31
2019-04-30T13:48:00.606Z,42.91
2019-04-30T13:50:31.311Z,39.87
2019-04-30T13:53:00.502Z,40.18
2019-04-30T13:55:42.700Z,40.59
2019-04-30T13:58:02.221Z,42.14
2019-04-30T14:00:31.522Z,42.06
2019-04-30T14:03:10.775Z,41.58
2019-04-30T14:05:39.959Z,42.09
2019-04-30T14:08:17.763Z,38.01
2019-04-30T14:10:49.226Z,41.90
2019-04-30T14:13:18.161Z,44.15
2019-04-30T14:15:48.165Z,40.63
2019-04-30T14:18:27.945Z,40.11
2019-04-30T14:20:48.431Z,42.87
2019-04-30T14:23:19.582Z,42.62
2019-04-30T14:25:56.441Z,41.94
2019-04-30T14:28:19.845Z,39.65
2019-04-30T14:30:49.150Z,37.19
2019-04-30T14:33:25.914Z,36.90
2019-04-30T14:35:49.818Z,33.06
2019-04-30T14:38:19.130Z,37.28
2019-04-30T14:40:50.642Z,39.25
2019-04-30T14:43:30.028Z,37.34
2019-04-30T14:46:24.696Z,41.78
2019-04-30T14:48:59.965Z,41.82
2019-04-30T14:51:28.031Z,43.18
2019-04-30T14:54:22.280Z,39.84
2019-04-30T15:00:06.057Z,36.15
2019-04-30T15:02:42.262Z,36.68
2019-04-30T15:05:11.762Z,39.30
2019-04-30T15:07:40.976Z,42.53
2019-04-30T15:10:10.179Z,41.27
2019-04-30T15:12:39.378Z,38.83
2019-04-30T15:15:09.231Z,36.25
2019-04-30T15:17:39.278Z,35.71
2019-04-30T15:20:10.105Z,35.58
2019-04-30T15:22:41.586Z,33.95
2019-04-30T15:25:12.272Z,39.02
2019-04-30T15:27:45.281Z,35.61
2019-04-30T15:30:13.323Z,35.92
2019-04-30T15:32:44.291Z,35.09
2019-04-30T15:35:13.530Z,35.91
2019-04-30T15:37:44.399Z,36.67
2019-04-30T15:40:13.670Z,40.91
2019-04-30T15:42:44.637Z,39.19
2019-04-30T15:45:15.894Z,40.20
2019-04-30T15:47:45.092Z,37.51
2019-04-30T15:50:14.587Z,37.59
2019-04-30T15:52:43.754Z,39.53
2019-04-30T15:55:13.060Z,37.10
2019-04-30T15:57:59.303Z,37.55
2019-04-30T16:00:31.348Z,40.48
2019-04-30T16:03:09.547Z,39.47
2019-04-30T16:05:41.637Z,36.46
2019-04-30T16:08:33.610Z,38.52
2019-04-30T16:11:20.331Z,39.62
2019-04-30T16:14:20.891Z,38.27
2019-04-30T16:17:09.170Z,42.27
2019-04-30T16:19:38.588Z,39.48
2019-04-30T16:22:07.914Z,40.04
2019-04-30T16:24:38.696Z,40.40
2019-04-30T16:27:09.270Z,44.99
2019-04-30T16:29:40.672Z,41.85
2019-04-30T16:32:09.489Z,39.45
2019-04-30T16:34:38.998Z,39.06
2019-04-30T16:37:08.243Z,38.84
2019-04-30T16:39:37.396Z,40.84
2019-04-30T16:42:06.632Z,40.11
2019-04-30T16:44:35.801Z,42.07
2019-04-30T16:47:13.444Z,41.47
2019-04-30T16:49:35.871Z,43.53
2019-04-30T16:52:05.058Z,43.51
2019-04-30T16:54:34.277Z,46.34
2019-04-30T16:57:06.737Z,47.47
2019-04-30T16:59:39.217Z,45.47
2019-04-30T17:02:09.321Z,45.90
2019-04-30T17:04:55.581Z,48.13
2019-04-30T17:07:38.763Z,49.04
2019-04-30T17:10:18.853Z,48.53
2019-04-30T17:13:01.007Z,48.99
2019-04-30T17:15:31.329Z,50.13
2019-04-30T17:18:00.500Z,50.33
2019-04-30T17:20:29.715Z,48.33
2019-04-30T17:22:59.594Z,49.96
2019-04-30T17:25:28.830Z,49.82
2019-04-30T17:28:01.084Z,46.98
2019-04-30T17:30:29.419Z,48.21
2019-04-30T17:32:59.726Z,50.18
2019-04-30T17:35:29.041Z,50.83
2019-04-30T17:37:58.352Z,51.26
2019-04-30T17:40:29.157Z,51.95
2019-04-30T17:42:58.386Z,52.00
2019-04-30T17:45:29.210Z,50.61
2019-04-30T17:47:58.610Z,52.52
2019-04-30T17:50:29.603Z,52.42
2019-04-30T17:53:00.739Z,51.90
2019-04-30T17:55:30.176Z,53.46
2019-04-30T17:57:59.356Z,52.46
2019-04-30T18:00:30.430Z,55.15
2019-04-30T18:02:59.646Z,56.90
2019-04-30T18:05:29.288Z,56.24
2019-04-30T18:07:58.797Z,56.57
2019-04-30T18:10:28.463Z,58.06
2019-04-30T18:12:57.639Z,58.88
2019-04-30T18:15:28.854Z,59.59
2019-04-30T18:18:07.140Z,58.88
2019-04-30T18:20:41.596Z,59.73
2019-04-30T18:23:40.077Z,60.68
2019-04-30T18:26:13.901Z,60.59
2019-04-30T18:28:44.653Z,61.25
2019-04-30T18:31:13.817Z,60.93
2019-04-30T18:33:42.997Z,61.19
2019-04-30T18:36:12.193Z,61.41
2019-04-30T18:38:41.350Z,62.31
2019-04-30T18:41:10.567Z,63.40
2019-04-30T18:43:40.550Z,63.22
2019-04-30T18:46:10.852Z,63.36
2019-04-30T18:48:40.135Z,63.68
2019-04-30T18:51:23.934Z,64.13
2019-04-30T18:53:40.367Z,64.58
2019-04-30T18:56:14.418Z,65.26
2019-04-30T18:58:43.040Z,65.78
2019-04-30T19:01:11.758Z,66.20
2019-04-30T19:03:40.989Z,66.78
2019-04-30T19:06:22.899Z,66.35
2019-04-30T19:08:52.934Z,66.43
2019-04-30T19:11:33.415Z,66.71
2019-04-30T19:14:24.779Z,66.71
2019-04-30T19:17:29.544Z,67.18
2019-04-30T19:20:21.916Z,67.28
2019-04-30T19:22:52.595Z,67.74
2019-04-30T19:25:22.067Z,68.36
2019-04-30T19:27:51.442Z,68.77
2019-04-30T19:30:22.290Z,69.24
2019-04-30T19:32:52.018Z,69.72
2019-04-30T19:35:22.371Z,70.03
2019-04-30T19:37:51.895Z,70.57
2019-04-30T19:40:21.354Z,71.14
2019-04-30T19:42:50.996Z,71.19
2019-04-30T19:45:20.290Z,72.04
2019-04-30T19:47:52.096Z,72.17
2019-04-30T19:50:21.408Z,72.08
2019-04-30T19:52:51.535Z,72.23
2019-04-30T19:55:20.787Z,72.58
2019-04-30T19:57:54.634Z,73.36
2019-04-30T20:00:23.906Z,73.82
2019-04-30T20:02:53.138Z,74.16
2019-04-30T20:05:23.290Z,73.57
2019-04-30T20:07:52.540Z,74.42
2019-04-30T20:10:22.258Z,74.25
2019-04-30T20:12:52.545Z,74.45
2019-04-30T20:15:24.592Z,74.97
2019-04-30T20:17:53.653Z,76.00
2019-04-30T20:20:23.328Z,75.90
2019-04-30T20:22:53.665Z,75.96
2019-04-30T20:25:24.362Z,75.56
2019-04-30T20:27:53.625Z,75.79
2019-04-30T20:30:22.959Z,76.33
2019-04-30T20:32:52.453Z,76.97
2019-04-30T20:35:23.016Z,76.99
2019-04-30T20:38:31.205Z,77.08
2019-04-30T20:41:03.091Z,76.74
2019-04-30T20:43:31.550Z,77.36
2019-04-30T20:46:01.078Z,78.02
2019-04-30T20:48:30.332Z,78.37
2019-04-30T20:51:01.310Z,78.26
2019-04-30T20:53:30.523Z,78.85
2019-04-30T20:55:59.738Z,79.03
2019-04-30T20:58:30.026Z,78.82
2019-04-30T21:01:03.928Z,79.09
2019-04-30T21:03:29.640Z,79.25
2019-04-30T21:06:00.376Z,79.31
2019-04-30T21:08:28.142Z,79.60
2019-04-30T21:10:56.406Z,79.67
2019-04-30T21:13:24.702Z,79.98
2019-04-30T21:15:54.991Z,80.31
2019-04-30T21:18:22.823Z,80.50
2019-04-30T21:20:51.098Z,80.75
2019-04-30T21:23:19.581Z,80.52
2019-04-30T21:25:48.783Z,80.42
2019-04-30T21:28:17.149Z,79.91
2019-04-30T21:30:46.477Z,79.23
2019-04-30T21:33:31.971Z,79.74
2019-04-30T21:36:14.594Z,80.19
2019-04-30T21:38:43.939Z,80.02
2019-04-30T21:41:13.101Z,80.00
2019-04-30T21:43:42.443Z,80.12
2019-04-30T21:46:11.701Z,79.63
2019-04-30T21:48:40.912Z,79.27
2019-04-30T21:51:10.085Z,79.69
2019-04-30T21:53:39.732Z,79.81
2019-04-30T21:56:10.013Z,79.80
2019-04-30T21:58:39.420Z,79.93
2019-04-30T22:01:21.536Z,79.36
2019-04-30T22:03:50.773Z,79.38
2019-04-30T22:06:20.027Z,79.63
2019-04-30T22:08:49.279Z,79.12
2019-04-30T22:11:19.775Z,78.92
2019-04-30T22:13:49.446Z,78.44
2019-04-30T22:16:20.447Z,78.77
2019-04-30T22:18:49.807Z,78.94
2019-04-30T22:21:19.033Z,78.51
2019-04-30T22:23:48.275Z,78.99
2019-04-30T22:26:17.631Z,79.13
2019-04-30T22:28:46.898Z,79.65
2019-04-30T22:31:16.362Z,79.30
2019-04-30T22:33:45.618Z,80.08
2019-04-30T22:36:34.529Z,80.17
2019-04-30T22:39:14.789Z,80.38
2019-04-30T22:41:43.992Z,80.35
2019-04-30T22:44:13.299Z,80.38
2019-04-30T22:46:42.572Z,79.45
2019-04-30T22:49:11.829Z,79.59
2019-04-30T22:51:41.061Z,80.22
2019-04-30T22:54:10.284Z,80.45
2019-04-30T22:56:39.508Z,80.54
2019-04-30T22:59:08.717Z,80.64
2019-04-30T23:01:53.331Z,80.37
2019-04-30T23:04:30.879Z,80.88
2019-04-30T23:07:00.450Z,80.72
2019-04-30T23:09:29.673Z,79.69
2019-04-30T23:11:58.890Z,80.31
2019-04-30T23:14:28.273Z,80.38
2019-04-30T23:16:57.700Z,80.04
2019-04-30T23:19:26.939Z,80.36
2019-04-30T23:21:56.442Z,80.93
2019-04-30T23:24:25.795Z,80.93
2019-04-30T23:26:55.065Z,80.66
2019-04-30T23:29:24.475Z,81.13
2019-04-30T23:31:53.703Z,80.60
2019-04-30T23:34:22.959Z,79.80
2019-04-30T23:36:52.152Z,80.48
2019-04-30T23:39:21.409Z,80.51
2019-04-30T23:41:50.664Z,80.33
2019-04-30T23:44:19.898Z,80.90
2019-04-30T23:46:49.189Z,81.01
2019-04-30T23:49:18.433Z,80.88
2019-04-30T23:51:50.427Z,80.95
2019-04-30T23:54:20.293Z,81.00
2019-04-30T23:56:49.634Z,81.05
2019-04-30T23:59:18.982Z,80.70
